Terminal Aerodrome Forecast
Issued by NWS

Home | Current Version | Previous Version | Text Only | Print | Product List | Glossary On
Versions: 1 2 3 4 5 6 7 8 9 10 11 12 13 14
501
FTUS45 KTFX 261743
TAFLWT
TAF
KLWT 261743Z 2618/2718 03005KT P6SM FEW100
     FM262000 03008KT P6SM VCTS BKN080CB
     FM270500 13008KT P6SM BKN080=

USA.gov is the U.S. government's official web portal to all federal, state and local government web resources and services.